首页
METAR-TAF:

METAR-TAF

机场 :

Shingle Point, 育康省, 加拿大

纬度: 68-57N, 经度: 137-13W, 海拔: 56米

当前天气观测

该预报发布于6分钟前的14:09 UTC
风速10节,风向西转西北
温度 -21°C
湿度 70%
气压 1018 hPa
少量云层高于2000英尺
阴天层高于3600英尺

METAR: CYUA 231409Z AUTO 29010KT ////SM FEW020 OVC036 M21/M25 A3007

时间: 06:15 (14:15 UTC)


TAF: 丢失

超过4000个机场的气象观测和天气预报(METAR&TAF报告)。

可查询的气象台以黄色和红色小点在地图上表示。

将鼠标移到小点上方,可查看气象台名称。

然后点击查看天气观测和预报。

如需切换地图:点击带黑十字的绿色按钮放大地图;点击带横线的绿色按钮缩小地图;或者点击绿色箭头查看邻近地区的地图。


METAR-TAF: